Time;durP1;ratioP1;P1;durP2;ratioP2;P2;SDS_P1;SDS_P2;PMS_P1;PMS_P2;Temp;Humidity;BMP_temperature;BMP_pressure;BME280_temperature;BME280_humidity;BME280_pressure;Samples;Min_cycle;Max_cycle;Signal;HPM_P1;HPM_P2
2022/11/26 00:01:16;;;;;;;28.63;7.70;;;6.00;99.90;;;;;;5020071;28;20037;-67
2022/11/26 00:03:42;;;;;;;22.05;6.32;;;6.10;99.90;;;;;;5019929;28;20113;-65
2022/11/26 00:06:24;;;;;;;25.55;7.13;;;6.10;99.90;;;;;;5014829;28;20120;-67
2022/11/26 00:08:49;;;;;;;19.30;6.55;;;6.20;99.90;;;;;;5023533;28;20047;-66
2022/11/26 00:11:15;;;;;;;25.13;6.15;;;6.10;99.90;;;;;;5020514;28;20431;-66
2022/11/26 00:13:41;;;;;;;19.00;5.93;;;6.00;99.90;;;;;;5001904;28;20048;-65
2022/11/26 00:16:13;;;;;;;21.33;7.70;;;6.00;99.90;;;;;;5014455;28;20032;-66
2022/11/26 00:18:40;;;;;;;27.55;7.07;;;5.90;99.90;;;;;;5017591;28;20516;-66
2022/11/26 00:21:14;;;;;;;24.67;7.22;;;5.80;99.90;;;;;;5023294;28;20029;-66
2022/11/26 00:23:40;;;;;;;34.80;7.40;;;5.80;99.90;;;;;;5019790;28;20105;-65
2022/11/26 00:26:15;;;;;;;30.13;7.60;;;5.70;99.90;;;;;;5023851;28;20133;-66
2022/11/26 00:28:56;;;;;;;20.25;7.28;;;5.70;99.90;;;;;;5019677;28;20041;-67
2022/11/26 00:31:23;;;;;;;20.98;8.57;;;5.80;99.90;;;;;;5023738;28;20112;-66
2022/11/26 00:33:48;;;;;;;31.27;8.20;;;5.80;99.90;;;;;;5021319;28;20025;-65
2022/11/26 00:36:24;;;;;;;29.80;7.57;;;5.80;99.90;;;;;;5019284;28;20032;-67
2022/11/26 00:39:00;;;;;;;29.95;8.95;;;5.70;99.90;;;;;;5015467;28;20104;-66
2022/11/26 00:41:37;;;;;;;25.95;9.07;;;5.70;99.90;;;;;;5017694;28;20026;-68
2022/11/26 00:44:03;;;;;;;33.47;11.35;;;5.70;99.90;;;;;;5013598;28;20491;-66
2022/11/26 00:46:29;;;;;;;25.83;9.48;;;5.60;99.90;;;;;;5019051;28;20025;-65
2022/11/26 00:48:54;;;;;;;31.35;8.63;;;5.70;99.90;;;;;;5014456;28;20483;-67
2022/11/26 00:51:24;;;;;;;36.30;10.35;;;5.70;99.90;;;;;;5014352;28;20029;-66
2022/11/26 00:53:54;;;;;;;33.33;10.05;;;5.80;99.90;;;;;;5013266;28;20136;-64
2022/11/26 00:56:21;;;;;;;33.10;9.93;;;5.90;99.90;;;;;;5015183;28;20515;-64
2022/11/26 00:58:47;;;;;;;30.67;9.45;;;5.90;99.90;;;;;;5019616;28;20040;-67
2022/11/26 01:01:17;;;;;;;31.23;9.88;;;6.00;99.90;;;;;;5020921;28;20049;-66
2022/11/26 01:03:43;;;;;;;27.80;9.65;;;6.00;99.90;;;;;;5015655;28;20072;-66
2022/11/26 01:06:16;;;;;;;34.92;10.23;;;5.90;99.90;;;;;;5022841;28;20057;-66
2022/11/26 01:08:42;;;;;;;26.83;10.17;;;5.80;99.90;;;;;;5020561;28;21037;-67
2022/11/26 01:11:13;;;;;;;32.10;9.63;;;5.70;99.90;;;;;;5012600;28;20029;-65
2022/11/26 01:13:39;;;;;;;31.42;10.40;;;5.60;99.90;;;;;;5000443;28;20049;-65
2022/11/26 01:16:24;;;;;;;28.58;10.43;;;5.50;99.90;;;;;;5025870;28;20036;-66
2022/11/26 01:18:53;;;;;;;24.25;8.00;;;5.50;99.90;;;;;;5024207;28;20033;-68
2022/11/26 01:21:19;;;;;;;32.60;9.70;;;5.40;99.90;;;;;;5020174;28;20040;-65
2022/11/26 01:23:45;;;;;;;26.67;10.05;;;5.50;99.90;;;;;;5020490;28;20021;-66
2022/11/26 01:26:23;;;;;;;35.95;11.23;;;5.50;99.90;;;;;;5018554;28;20054;-67
2022/11/26 01:28:49;;;;;;;36.58;9.35;;;5.50;99.90;;;;;;5014820;28;20034;-68
2022/11/26 01:31:17;;;;;;;25.50;10.95;;;5.60;99.90;;;;;;5016309;28;20102;-67
2022/11/26 01:33:43;;;;;;;24.25;9.43;;;5.60;99.90;;;;;;5011765;28;20052;-67
2022/11/26 01:36:36;;;;;;;40.28;11.65;;;5.60;99.90;;;;;;5019285;28;20480;-67
2022/11/26 01:39:17;;;;;;;36.28;10.70;;;5.60;99.90;;;;;;5024068;28;20049;-67
2022/11/26 01:42:04;;;;;;;33.95;11.75;;;5.60;99.90;;;;;;5019525;28;20032;-66
2022/11/26 01:44:32;;;;;;;31.15;10.10;;;5.70;99.90;;;;;;5022490;28;20071;-67
2022/11/26 01:46:59;;;;;;;27.35;10.60;;;5.60;99.90;;;;;;5016668;28;20030;-67
2022/11/26 01:49:27;;;;;;;28.63;11.40;;;5.60;99.90;;;;;;5025044;28;20061;-67
2022/11/26 01:52:21;;;;;;;26.45;10.45;;;5.60;99.90;;;;;;5022341;28;20117;-66
2022/11/26 01:54:48;;;;;;;27.77;10.77;;;5.60;99.90;;;;;;5024243;28;20046;-66
2022/11/26 01:57:25;;;;;;;27.52;10.13;;;5.50;99.90;;;;;;5022377;28;20034;-68
2022/11/26 02:00:00;;;;;;;41.97;11.15;;;5.50;99.90;;;;;;5022207;28;20026;-66
2022/11/26 02:02:27;;;;;;;27.73;10.27;;;5.40;99.90;;;;;;5027838;28;20029;-67
2022/11/26 02:05:04;;;;;;;27.30;9.98;;;5.40;99.90;;;;;;5028706;28;20028;-67
2022/11/26 02:07:30;;;;;;;28.58;10.38;;;5.40;99.90;;;;;;5032960;28;20041;-66
2022/11/26 02:09:55;;;;;;;26.35;11.23;;;5.30;99.90;;;;;;5030948;28;20021;-66
2022/11/26 02:12:21;;;;;;;28.35;10.02;;;5.30;99.90;;;;;;5024025;28;20491;-66
2022/11/26 02:14:46;;;;;;;30.08;12.00;;;5.20;99.90;;;;;;4996996;28;20109;-67
2022/11/26 02:17:21;;;;;;;28.88;9.38;;;5.20;99.90;;;;;;5022606;28;20021;-69
2022/11/26 02:20:14;;;;;;;23.85;8.85;;;5.10;99.90;;;;;;5024328;28;20030;-67
2022/11/26 02:22:48;;;;;;;37.28;10.63;;;5.00;99.90;;;;;;5020804;28;20033;-67
2022/11/26 02:25:37;;;;;;;23.63;9.65;;;5.00;99.90;;;;;;5024016;28;20030;-67
2022/11/26 02:28:14;;;;;;;42.08;10.57;;;4.90;99.90;;;;;;5031591;28;20033;-66
2022/11/26 02:30:59;;;;;;;32.55;9.63;;;4.80;99.90;;;;;;5038470;28;20025;-66
2022/11/26 02:34:01;;;;;;;22.65;8.98;;;4.80;99.90;;;;;;5029564;28;20056;-66
2022/11/26 02:36:55;;;;;;;27.08;9.93;;;4.70;99.90;;;;;;5013302;28;20470;-68
2022/11/26 02:39:23;;;;;;;27.65;11.27;;;4.60;99.90;;;;;;5029098;28;20384;-66
2022/11/26 02:41:56;;;;;;;26.55;9.90;;;4.60;99.90;;;;;;5025117;28;20026;-66
2022/11/26 02:44:25;;;;;;;34.33;10.30;;;4.60;99.90;;;;;;5042289;28;20080;-66
2022/11/26 02:46:56;;;;;;;26.27;9.75;;;4.60;99.90;;;;;;5028225;28;20040;-66
2022/11/26 02:49:23;;;;;;;25.55;10.23;;;4.50;99.90;;;;;;5066357;23;20046;-67
2022/11/26 02:51:52;;;;;;;29.13;11.48;;;4.50;99.90;;;;;;5016274;28;20392;-67
2022/11/26 02:54:20;;;;;;;33.00;11.05;;;4.40;99.90;;;;;;5027860;28;20053;-67
2022/11/26 02:56:47;;;;;;;36.63;10.82;;;4.40;99.90;;;;;;5024157;28;20054;-67
2022/11/26 02:59:13;;;;;;;31.55;9.65;;;4.30;99.90;;;;;;5020538;28;20033;-67
2022/11/26 03:01:44;;;;;;;26.80;10.57;;;4.30;99.90;;;;;;5017634;28;20025;-67
2022/11/26 03:04:20;;;;;;;29.58;9.88;;;4.30;99.90;;;;;;5007407;28;20600;-67
2022/11/26 03:06:46;;;;;;;44.00;11.88;;;4.20;99.90;;;;;;5013681;28;20488;-67
2022/11/26 03:09:16;;;;;;;29.02;11.15;;;4.30;99.90;;;;;;5007809;28;20109;-67
2022/11/26 03:11:41;;;;;;;27.88;11.40;;;4.30;99.90;;;;;;5016149;28;20517;-68
2022/11/26 03:14:07;;;;;;;29.30;11.95;;;4.30;99.90;;;;;;5002735;28;20041;-67
2022/11/26 03:16:32;;;;;;;27.25;11.23;;;4.30;99.90;;;;;;5021910;28;20380;-66
2022/11/26 03:18:58;;;;;;;26.55;10.38;;;4.30;99.90;;;;;;5012111;28;20444;-67
2022/11/26 03:21:24;;;;;;;33.50;9.57;;;4.20;99.90;;;;;;5017918;28;20045;-67
2022/11/26 03:23:49;;;;;;;29.98;11.73;;;4.20;99.90;;;;;;5019729;28;20033;-67
2022/11/26 03:26:15;;;;;;;28.40;11.20;;;4.20;99.90;;;;;;5006188;28;20030;-67
2022/11/26 03:28:41;;;;;;;35.60;11.77;;;4.20;99.90;;;;;;5006287;28;20061;-67
2022/11/26 03:31:06;;;;;;;29.42;11.68;;;4.10;99.90;;;;;;5008905;28;20030;-67
2022/11/26 03:33:32;;;;;;;36.38;11.88;;;4.10;99.90;;;;;;5007308;28;20037;-67
2022/11/26 03:35:57;;;;;;;31.20;11.20;;;4.10;99.90;;;;;;5008899;28;20036;-66
2022/11/26 03:38:23;;;;;;;25.48;11.13;;;4.10;99.90;;;;;;5005917;28;20029;-66
2022/11/26 03:41:01;;;;;;;31.30;10.57;;;4.00;99.90;;;;;;5004066;28;20028;-66
2022/11/26 03:43:27;;;;;;;19.42;8.73;;;4.00;99.90;;;;;;5004065;28;20108;-67
2022/11/26 03:45:52;;;;;;;28.00;10.98;;;3.90;99.90;;;;;;5009584;28;20100;-68
2022/11/26 03:48:18;;;;;;;28.92;10.55;;;3.90;99.90;;;;;;5000285;28;20045;-67
2022/11/26 03:50:44;;;;;;;25.00;9.60;;;3.80;99.90;;;;;;5009829;28;20045;-67
2022/11/26 03:53:09;;;;;;;36.45;11.15;;;3.80;99.90;;;;;;5008823;28;20021;-67
2022/11/26 03:55:35;;;;;;;38.67;12.15;;;3.90;99.90;;;;;;5008811;28;20599;-67
2022/11/26 03:58:00;;;;;;;41.92;11.52;;;4.00;99.90;;;;;;5005963;28;20105;-67
2022/11/26 04:00:26;;;;;;;38.63;11.57;;;4.00;99.90;;;;;;5000340;28;20030;-67
2022/11/26 04:02:51;;;;;;;35.75;10.63;;;4.00;99.90;;;;;;5008124;28;20022;-67
2022/11/26 04:05:17;;;;;;;42.80;12.30;;;4.00;99.90;;;;;;5010492;28;20037;-67
2022/11/26 04:07:43;;;;;;;37.13;10.75;;;3.90;99.90;;;;;;5008052;28;20065;-67
2022/11/26 04:10:09;;;;;;;40.90;10.48;;;3.90;99.90;;;;;;5006931;28;20036;-67
2022/11/26 04:12:35;;;;;;;35.10;10.75;;;3.80;99.90;;;;;;5009405;28;20041;-67
2022/11/26 04:15:00;;;;;;;37.38;10.80;;;3.80;99.90;;;;;;4989999;28;20072;-67
2022/11/26 04:17:26;;;;;;;27.23;9.43;;;3.80;99.90;;;;;;5010216;28;20048;-67
2022/11/26 04:19:52;;;;;;;29.42;9.70;;;3.80;99.90;;;;;;5007775;28;20089;-67
2022/11/26 04:22:17;;;;;;;32.92;10.93;;;3.80;99.90;;;;;;4999212;28;20848;-67
2022/11/26 04:24:43;;;;;;;36.35;10.02;;;3.80;99.90;;;;;;5007154;28;20030;-67
2022/11/26 04:27:08;;;;;;;25.42;9.88;;;3.80;99.90;;;;;;5010423;28;20602;-67
2022/11/26 04:29:35;;;;;;;38.72;10.18;;;3.80;99.90;;;;;;5011015;28;20044;-67
2022/11/26 04:32:01;;;;;;;23.70;10.15;;;3.70;99.90;;;;;;4995515;28;20026;-67
2022/11/26 04:34:26;;;;;;;30.92;9.95;;;3.70;99.90;;;;;;5005190;28;20033;-67
2022/11/26 04:36:52;;;;;;;26.40;9.68;;;3.60;99.90;;;;;;5006224;28;20042;-67
2022/11/26 04:39:18;;;;;;;32.15;9.40;;;3.60;99.90;;;;;;5025818;28;20495;-67
2022/11/26 04:41:43;;;;;;;26.52;10.07;;;3.60;99.90;;;;;;5008587;28;20022;-67
2022/11/26 04:44:09;;;;;;;51.88;11.15;;;3.50;99.90;;;;;;5007308;28;20034;-67
2022/11/26 04:46:34;;;;;;;24.90;10.15;;;3.60;99.90;;;;;;5013522;28;20138;-67
2022/11/26 04:49:00;;;;;;;23.83;8.43;;;3.50;99.90;;;;;;5004402;28;20046;-67
2022/11/26 04:51:25;;;;;;;31.02;10.15;;;3.50;99.90;;;;;;5005875;28;20155;-67
2022/11/26 04:53:51;;;;;;;31.23;11.68;;;3.50;99.90;;;;;;5007449;28;20069;-68
2022/11/26 04:56:17;;;;;;;33.92;10.15;;;3.50;99.90;;;;;;5005620;28;20041;-67
2022/11/26 04:58:42;;;;;;;32.03;10.15;;;3.50;99.90;;;;;;5004188;28;20022;-68
2022/11/26 05:01:08;;;;;;;37.78;10.20;;;3.40;99.90;;;;;;5005155;28;20442;-67
2022/11/26 05:03:35;;;;;;;35.60;11.82;;;3.40;99.90;;;;;;5005764;28;20051;-67
2022/11/26 05:06:01;;;;;;;32.75;10.40;;;3.40;99.90;;;;;;5007828;28;20025;-67
2022/11/26 05:08:26;;;;;;;33.28;12.50;;;3.40;99.90;;;;;;5008583;28;20037;-67
2022/11/26 05:10:53;;;;;;;38.00;11.45;;;3.50;99.90;;;;;;5004780;28;20030;-67
2022/11/26 05:13:19;;;;;;;36.08;11.35;;;3.50;99.90;;;;;;5006800;28;20041;-67
2022/11/26 05:15:45;;;;;;;41.85;11.40;;;3.50;99.90;;;;;;4983808;28;20050;-67
2022/11/26 05:18:10;;;;;;;29.40;12.20;;;3.40;99.90;;;;;;5002063;28;20113;-68
2022/11/26 05:20:36;;;;;;;44.17;11.98;;;3.50;99.90;;;;;;5004904;28;20145;-67
2022/11/26 05:23:01;;;;;;;36.45;11.75;;;3.50;99.90;;;;;;5004838;28;20036;-67
2022/11/26 05:25:27;;;;;;;44.78;11.68;;;3.50;99.90;;;;;;5007303;28;20515;-66
2022/11/26 05:27:53;;;;;;;36.72;11.13;;;3.40;99.90;;;;;;5009801;28;20030;-67
2022/11/26 05:30:18;;;;;;;39.63;11.13;;;3.40;99.90;;;;;;5011675;28;20034;-67
2022/11/26 05:32:44;;;;;;;39.40;11.70;;;3.40;99.90;;;;;;5007524;28;20030;-67
2022/11/26 05:35:10;;;;;;;44.22;10.98;;;3.40;99.90;;;;;;5009770;28;20018;-67
2022/11/26 05:37:36;;;;;;;39.95;11.60;;;3.40;99.90;;;;;;5006701;28;20018;-67
2022/11/26 05:40:02;;;;;;;39.58;11.80;;;3.30;99.90;;;;;;5006694;28;20038;-67
2022/11/26 05:42:28;;;;;;;36.58;11.15;;;3.30;99.90;;;;;;5011696;28;20419;-67
2022/11/26 05:44:54;;;;;;;37.95;13.02;;;3.30;99.90;;;;;;5010718;28;20041;-67
2022/11/26 05:47:19;;;;;;;27.20;10.98;;;3.20;99.90;;;;;;5006521;28;20062;-67
2022/11/26 05:49:45;;;;;;;44.60;11.18;;;3.20;99.90;;;;;;5009481;28;20092;-67
2022/11/26 05:52:10;;;;;;;46.33;12.30;;;3.20;99.90;;;;;;5006735;28;20038;-68
2022/11/26 05:54:36;;;;;;;37.53;12.27;;;3.20;99.90;;;;;;5013491;28;20018;-67
2022/11/26 05:57:01;;;;;;;45.35;13.20;;;3.20;99.90;;;;;;5001381;28;20141;-67
2022/11/26 05:59:27;;;;;;;49.30;13.70;;;3.20;99.90;;;;;;5006916;28;20388;-67
2022/11/26 06:01:52;;;;;;;45.10;13.18;;;3.40;99.90;;;;;;5011806;28;20242;-67
2022/11/26 06:04:18;;;;;;;43.13;12.30;;;3.50;99.90;;;;;;5014880;28;20666;-68
2022/11/26 06:06:43;;;;;;;43.85;12.88;;;3.60;99.90;;;;;;5006044;28;20065;-67
2022/11/26 06:09:09;;;;;;;44.17;11.73;;;3.60;99.90;;;;;;5009489;28;20026;-67
2022/11/26 06:11:35;;;;;;;43.22;11.65;;;3.60;99.90;;;;;;5017442;28;20116;-66
2022/11/26 06:14:00;;;;;;;42.33;12.23;;;3.70;99.90;;;;;;4991791;28;20462;-67
2022/11/26 06:16:26;;;;;;;35.17;11.07;;;3.70;99.90;;;;;;5014307;28;20435;-68
2022/11/26 06:18:51;;;;;;;38.45;10.80;;;3.80;99.90;;;;;;5003413;28;20072;-67
2022/11/26 06:21:17;;;;;;;33.80;10.05;;;3.80;99.90;;;;;;5005156;28;20519;-67
2022/11/26 06:23:43;;;;;;;30.45;9.93;;;3.80;99.90;;;;;;5022202;28;20379;-67
2022/11/26 06:26:11;;;;;;;37.78;11.43;;;3.80;99.90;;;;;;5018681;28;20034;-67
2022/11/26 06:28:37;;;;;;;42.08;10.52;;;3.80;99.90;;;;;;5012432;28;20056;-68
2022/11/26 06:31:03;;;;;;;47.80;10.73;;;3.80;99.90;;;;;;5016237;28;20080;-67
2022/11/26 06:33:28;;;;;;;35.08;10.90;;;3.70;99.90;;;;;;5010580;28;20037;-67
2022/11/26 06:35:59;;;;;;;39.13;11.52;;;3.60;99.90;;;;;;5009062;28;20032;-66
2022/11/26 06:38:24;;;;;;;40.95;10.63;;;3.60;99.90;;;;;;5018790;28;20503;-67
2022/11/26 06:40:57;;;;;;;31.10;9.25;;;3.60;99.90;;;;;;5010606;28;20030;-67
2022/11/26 06:43:23;;;;;;;27.15;10.63;;;3.50;99.90;;;;;;5008462;28;20041;-67
2022/11/26 06:45:49;;;;;;;25.02;9.68;;;3.60;99.90;;;;;;5019317;28;20025;-67
2022/11/26 06:48:14;;;;;;;35.17;11.18;;;3.50;99.90;;;;;;5021411;28;20026;-67
2022/11/26 06:50:40;;;;;;;44.85;17.58;;;3.50;99.90;;;;;;5024648;28;20813;-67
2022/11/26 06:53:05;;;;;;;64.75;22.50;;;3.50;99.90;;;;;;5019237;28;20514;-67
2022/11/26 06:55:31;;;;;;;79.60;33.80;;;3.50;99.90;;;;;;5010715;28;20484;-67
2022/11/26 06:57:56;;;;;;;75.50;27.30;;;3.50;99.90;;;;;;5015481;28;20480;-67
2022/11/26 07:00:22;;;;;;;53.90;21.90;;;3.60;99.90;;;;;;5022277;28;20756;-68
2022/11/26 07:02:47;;;;;;;71.07;24.00;;;3.50;99.90;;;;;;5014011;28;20085;-67
2022/11/26 07:05:13;;;;;;;60.63;24.45;;;3.50;99.90;;;;;;5015231;28;20064;-67
2022/11/26 07:07:39;;;;;;;53.75;19.50;;;3.50;99.90;;;;;;5015236;28;20026;-67
2022/11/26 07:10:05;;;;;;;50.08;18.08;;;3.40;99.90;;;;;;5007987;28;20022;-67
2022/11/26 07:12:30;;;;;;;36.85;14.98;;;3.40;99.90;;;;;;5019334;28;20471;-67
2022/11/26 07:14:56;;;;;;;38.40;12.00;;;3.40;99.90;;;;;;4999736;28;20050;-67
2022/11/26 07:17:22;;;;;;;50.05;12.30;;;3.40;99.90;;;;;;5008072;28;20451;-67
2022/11/26 07:19:48;;;;;;;29.50;10.55;;;3.40;99.90;;;;;;5009747;28;20117;-67
2022/11/26 07:22:14;;;;;;;30.13;10.70;;;3.40;99.90;;;;;;5012312;28;20037;-68
2022/11/26 07:24:40;;;;;;;30.38;9.77;;;3.50;99.90;;;;;;5015411;28;20395;-67
2022/11/26 07:27:06;;;;;;;44.28;10.98;;;3.60;99.90;;;;;;5004951;28;20030;-67
2022/11/26 07:29:32;;;;;;;33.97;9.93;;;3.80;99.90;;;;;;5001486;28;20053;-66
2022/11/26 07:31:57;;;;;;;41.13;9.65;;;3.90;99.90;;;;;;5012099;28;20029;-67
2022/11/26 07:34:23;;;;;;;27.67;9.93;;;4.10;99.90;;;;;;5011109;28;20033;-67
2022/11/26 07:36:48;;;;;;;26.60;9.45;;;4.20;99.90;;;;;;5006360;28;20056;-67
2022/11/26 07:39:14;;;;;;;32.33;9.68;;;4.40;99.90;;;;;;5005394;28;20022;-68
2022/11/26 07:41:39;;;;;;;27.02;9.60;;;4.50;99.90;;;;;;5006750;28;20033;-67
2022/11/26 07:44:05;;;;;;;32.60;9.70;;;4.60;99.90;;;;;;5006316;28;20032;-67
2022/11/26 07:46:31;;;;;;;20.65;7.78;;;4.70;99.90;;;;;;5004169;28;20511;-68
2022/11/26 07:48:57;;;;;;;17.38;7.20;;;4.80;99.90;;;;;;5008422;28;20049;-67
2022/11/26 07:51:28;;;;;;;20.50;7.68;;;4.90;99.90;;;;;;5003092;28;20460;-67
2022/11/26 07:53:55;;;;;;;21.75;6.88;;;5.00;99.90;;;;;;5005171;28;20424;-67
2022/11/26 07:56:21;;;;;;;24.08;7.35;;;5.10;99.90;;;;;;5009168;28;20029;-68
2022/11/26 07:58:46;;;;;;;17.35;7.25;;;5.10;99.90;;;;;;5008657;28;20030;-67
2022/11/26 08:01:15;;;;;;;14.25;6.30;;;5.20;99.90;;;;;;5012216;28;20133;-68
2022/11/26 08:03:44;;;;;;;23.27;6.65;;;5.20;99.90;;;;;;5007662;28;20026;-67
2022/11/26 08:06:12;;;;;;;19.42;6.60;;;5.30;99.90;;;;;;5009618;28;20029;-66
2022/11/26 08:08:38;;;;;;;15.63;6.57;;;5.40;99.90;;;;;;5001793;28;20030;-67
2022/11/26 08:11:10;;;;;;;19.98;6.28;;;5.40;99.90;;;;;;5008549;28;20026;-67
2022/11/26 08:13:36;;;;;;;16.63;6.20;;;5.40;99.90;;;;;;5009059;28;20101;-67
2022/11/26 08:16:02;;;;;;;18.10;6.35;;;5.40;99.90;;;;;;4996155;28;20137;-67
2022/11/26 08:18:27;;;;;;;15.98;5.70;;;5.40;99.90;;;;;;5000881;28;20057;-67
2022/11/26 08:20:57;;;;;;;20.83;7.35;;;5.40;99.90;;;;;;5009404;28;20036;-67
2022/11/26 08:23:23;;;;;;;14.30;5.38;;;5.50;99.90;;;;;;5013381;28;20030;-67
2022/11/26 08:25:50;;;;;;;20.50;7.10;;;5.40;99.90;;;;;;5008117;28;20030;-67
2022/11/26 08:28:15;;;;;;;15.60;6.97;;;5.50;99.90;;;;;;5007815;28;20029;-68
2022/11/26 08:30:41;;;;;;;17.27;5.57;;;5.50;99.90;;;;;;5013022;28;20541;-69
2022/11/26 08:33:06;;;;;;;12.30;4.95;;;5.50;99.90;;;;;;5007616;28;20117;-67
2022/11/26 08:35:34;;;;;;;15.45;4.53;;;5.50;99.90;;;;;;5007025;28;20388;-67
2022/11/26 08:38:00;;;;;;;16.73;4.80;;;5.50;99.90;;;;;;5000343;28;20038;-67
2022/11/26 08:40:25;;;;;;;20.25;5.43;;;5.60;99.90;;;;;;5011706;28;20048;-68
2022/11/26 08:42:51;;;;;;;12.55;5.07;;;5.50;99.90;;;;;;5001970;28;20104;-67
2022/11/26 08:45:16;;;;;;;11.60;4.80;;;5.50;99.90;;;;;;5009192;28;20037;-67
2022/11/26 08:47:42;;;;;;;12.20;4.93;;;5.60;99.90;;;;;;5008443;28;20698;-67
2022/11/26 08:50:08;;;;;;;12.50;4.85;;;5.60;99.90;;;;;;5015145;28;20096;-67
2022/11/26 08:52:33;;;;;;;16.17;5.53;;;5.60;99.90;;;;;;5011123;28;20440;-67
2022/11/26 08:54:59;;;;;;;14.85;4.72;;;5.60;99.90;;;;;;5011666;28;20155;-68
2022/11/26 08:57:24;;;;;;;8.40;4.38;;;5.70;99.90;;;;;;5005235;28;20025;-68
2022/11/26 08:59:50;;;;;;;13.95;4.43;;;5.70;99.90;;;;;;5005201;28;20654;-67
2022/11/26 09:02:16;;;;;;;7.68;3.55;;;5.70;99.90;;;;;;5011379;28;20505;-68
2022/11/26 09:04:42;;;;;;;11.20;3.80;;;5.70;99.90;;;;;;5012600;28;20060;-68
2022/11/26 09:07:07;;;;;;;15.10;4.90;;;5.70;99.90;;;;;;5002187;28;20026;-68
2022/11/26 09:09:33;;;;;;;11.13;4.22;;;5.80;99.90;;;;;;5011012;28;20026;-67
2022/11/26 09:12:01;;;;;;;14.65;4.72;;;5.80;99.90;;;;;;5010649;28;20036;-68
2022/11/26 09:14:29;;;;;;;6.55;4.28;;;5.90;99.90;;;;;;4996353;28;20383;-67
2022/11/26 09:16:56;;;;;;;17.67;4.43;;;6.00;99.90;;;;;;5004335;28;20094;-68
2022/11/26 09:19:23;;;;;;;13.63;4.43;;;6.10;99.90;;;;;;5007828;28;20652;-68
2022/11/26 09:21:49;;;;;;;12.60;3.92;;;6.10;99.90;;;;;;5008949;28;20025;-67
2022/11/26 09:24:16;;;;;;;11.63;3.78;;;6.10;99.90;;;;;;5015790;28;20423;-68
2022/11/26 09:26:41;;;;;;;12.50;4.50;;;6.20;99.90;;;;;;5010519;28;20033;-68
2022/11/26 09:29:08;;;;;;;8.75;4.28;;;6.20;99.90;;;;;;5005412;28;20022;-68
2022/11/26 09:31:34;;;;;;;12.88;3.97;;;6.20;99.90;;;;;;5006449;28;20495;-68
2022/11/26 09:34:00;;;;;;;11.75;4.47;;;6.30;99.90;;;;;;5016242;28;20093;-68
2022/11/26 09:36:26;;;;;;;11.10;4.50;;;6.50;99.90;;;;;;5012002;28;20080;-67
2022/11/26 09:38:56;;;;;;;10.32;3.83;;;6.70;99.90;;;;;;5004079;28;20423;-68
2022/11/26 09:41:40;;;;;;;24.00;5.78;;;6.80;99.90;;;;;;5002700;28;20034;-69
2022/11/26 09:44:17;;;;;;;9.95;4.13;;;6.80;99.90;;;;;;5028362;23;20158;-64
2022/11/26 09:46:43;;;;;;;12.68;6.32;;;6.70;99.90;;;;;;5014483;28;20030;-65
2022/11/26 09:49:13;;;;;;;12.85;4.57;;;6.80;99.90;;;;;;5016529;28;20099;-65
2022/11/26 09:51:43;;;;;;;10.90;4.10;;;6.80;99.90;;;;;;5019736;28;20030;-65
2022/11/26 09:54:15;;;;;;;12.75;4.05;;;6.90;99.90;;;;;;5014026;28;21318;-65
2022/11/26 09:56:40;;;;;;;10.73;5.32;;;6.90;99.90;;;;;;5007074;28;20078;-65
2022/11/26 09:59:16;;;;;;;38.92;15.10;;;6.90;99.90;;;;;;5003402;28;20026;-65
2022/11/26 10:01:42;;;;;;;15.32;5.10;;;6.90;99.90;;;;;;5004057;28;20022;-66
2022/11/26 10:04:14;;;;;;;12.40;3.90;;;6.90;99.90;;;;;;5007448;28;20034;-65
2022/11/26 10:07:00;;;;;;;15.23;4.03;;;6.90;99.90;;;;;;5003987;28;20061;-64
2022/11/26 10:09:47;;;;;;;12.20;3.65;;;7.10;99.90;;;;;;5007080;28;20762;-64
2022/11/26 10:12:37;;;;;;;10.48;4.65;;;7.10;99.90;;;;;;5008585;28;20033;-64
2022/11/26 10:15:35;;;;;;;13.93;4.88;;;7.10;99.90;;;;;;5000121;28;20435;-65
2022/11/26 10:18:24;;;;;;;15.95;4.25;;;7.20;99.90;;;;;;5009253;28;20061;-65
2022/11/26 10:21:02;;;;;;;9.45;4.72;;;7.30;99.90;;;;;;5013879;28;20104;-65
2022/11/26 10:23:33;;;;;;;17.70;5.00;;;7.40;99.90;;;;;;5009009;28;20034;-65
2022/11/26 10:26:15;;;;;;;12.00;3.28;;;7.50;99.90;;;;;;5008836;28;20050;-65
2022/11/26 10:28:43;;;;;;;9.88;2.75;;;7.60;99.90;;;;;;5012170;28;20384;-67
2022/11/26 10:31:21;;;;;;;6.72;2.97;;;7.70;99.90;;;;;;5009860;28;20105;-64
2022/11/26 10:34:00;;;;;;;10.65;3.90;;;7.80;99.90;;;;;;4989855;28;20046;-65
2022/11/26 10:36:38;;;;;;;8.80;3.50;;;7.90;99.90;;;;;;5007499;28;20492;-64
2022/11/26 10:39:06;;;;;;;8.45;2.83;;;8.20;99.90;;;;;;4989862;28;20062;-65
2022/11/26 10:41:34;;;;;;;13.70;4.05;;;8.30;99.90;;;;;;4957441;28;20030;-64
2022/11/26 10:44:31;;;;;;;8.00;2.67;;;8.50;99.90;;;;;;5004798;28;20014;-64
2022/11/26 10:46:57;;;;;;;7.38;3.10;;;8.70;99.90;;;;;;5005515;28;20411;-65
2022/11/26 10:49:26;;;;;;;7.82;3.15;;;8.70;99.90;;;;;;5008747;28;20456;-64
2022/11/26 10:52:02;;;;;;;10.75;3.75;;;8.80;99.90;;;;;;5009592;28;20103;-64
2022/11/26 10:54:32;;;;;;;8.52;3.17;;;8.90;99.90;;;;;;5001860;28;20034;-65
2022/11/26 10:57:18;;;;;;;12.82;3.20;;;9.00;99.90;;;;;;5003214;28;20028;-66
2022/11/26 10:59:48;;;;;;;8.90;3.47;;;9.10;99.90;;;;;;5006566;28;20025;-64
2022/11/26 11:02:16;;;;;;;6.30;2.60;;;9.10;99.90;;;;;;5005419;28;20113;-64
2022/11/26 11:04:44;;;;;;;9.80;3.05;;;9.10;99.90;;;;;;5006739;28;20037;-64
2022/11/26 11:07:35;;;;;;;9.65;3.65;;;9.10;99.90;;;;;;5010369;28;20553;-64
2022/11/26 11:10:04;;;;;;;7.38;2.97;;;9.20;99.90;;;;;;5003759;28;20030;-64
2022/11/26 11:12:30;;;;;;;12.70;3.40;;;9.30;99.90;;;;;;5000922;28;20435;-64
2022/11/26 11:15:08;;;;;;;9.82;2.70;;;9.30;99.90;;;;;;5004935;28;20030;-64
2022/11/26 11:17:37;;;;;;;6.25;3.55;;;9.20;99.90;;;;;;5010035;28;20020;-64
2022/11/26 11:20:30;;;;;;;8.05;2.60;;;9.10;99.90;;;;;;5010643;28;20026;-65
2022/11/26 11:23:21;;;;;;;14.32;3.00;;;9.10;99.90;;;;;;5009663;28;20068;-65
2022/11/26 11:26:07;;;;;;;7.35;2.78;;;9.10;99.90;;;;;;5008719;28;21792;-64
2022/11/26 11:28:38;;;;;;;9.15;3.15;;;9.10;99.90;;;;;;5004487;28;20510;-64
2022/11/26 11:31:13;;;;;;;7.90;2.78;;;9.00;99.90;;;;;;5004239;28;20228;-64
2022/11/26 11:33:39;;;;;;;5.43;3.15;;;8.90;99.90;;;;;;5005910;28;20038;-64
2022/11/26 11:36:14;;;;;;;7.38;3.05;;;8.90;99.90;;;;;;5011118;28;20032;-65
2022/11/26 11:38:46;;;;;;;6.95;2.78;;;8.90;99.90;;;;;;4998763;28;20556;-65
2022/11/26 11:41:19;;;;;;;11.25;3.15;;;8.90;99.90;;;;;;5010751;28;20022;-64
2022/11/26 11:43:45;;;;;;;7.03;2.70;;;8.90;99.90;;;;;;5001005;28;21872;-65
2022/11/26 11:46:48;;;;;;;17.95;5.72;;;8.90;99.90;;;;;;5010243;28;20029;-64
2022/11/26 11:49:29;;;;;;;24.27;7.05;;;8.90;99.90;;;;;;5008516;28;20746;-65
2022/11/26 11:52:31;;;;;;;13.27;5.03;;;8.80;99.90;;;;;;5003632;28;20172;-65
2022/11/26 11:55:44;;;;;;;13.00;2.90;;;8.80;99.90;;;;;;5008835;28;20033;-65
2022/11/26 11:58:16;;;;;;;12.52;3.08;;;8.80;99.90;;;;;;4973162;28;20031;-63
2022/11/26 12:00:54;;;;;;;6.72;3.15;;;8.80;99.90;;;;;;5006055;28;20021;-65
2022/11/26 12:03:52;;;;;;;4.95;2.72;;;8.80;99.90;;;;;;5007770;28;20111;-64
2022/11/26 12:06:49;;;;;;;10.25;2.65;;;8.80;99.90;;;;;;5010465;28;20117;-65
2022/11/26 12:09:25;;;;;;;5.78;2.60;;;8.80;99.90;;;;;;5000494;28;20026;-65
2022/11/26 12:12:11;;;;;;;6.30;2.88;;;8.80;99.90;;;;;;5001021;28;20030;-64
2022/11/26 12:14:43;;;;;;;7.13;2.75;;;8.80;99.90;;;;;;5010930;28;20039;-65
2022/11/26 12:17:31;;;;;;;7.75;2.38;;;8.90;99.90;;;;;;5006639;28;20496;-65
2022/11/26 12:20:19;;;;;;;10.15;2.70;;;9.10;99.90;;;;;;5010694;28;20516;-64
2022/11/26 12:22:57;;;;;;;6.30;2.63;;;9.10;99.90;;;;;;5010988;28;20052;-63
2022/11/26 12:25:33;;;;;;;8.27;3.33;;;9.00;99.90;;;;;;5009639;28;20504;-63
2022/11/26 12:28:11;;;;;;;7.65;2.97;;;9.10;99.90;;;;;;5005357;28;20026;-64
2022/11/26 12:30:43;;;;;;;6.30;2.45;;;9.10;99.90;;;;;;5004463;28;20034;-63
2022/11/26 12:33:21;;;;;;;8.85;2.70;;;9.00;99.90;;;;;;5009815;28;20043;-64
2022/11/26 12:35:55;;;;;;;11.65;3.00;;;8.90;99.90;;;;;;5012168;28;20038;-64
2022/11/26 12:38:29;;;;;;;11.15;3.35;;;9.00;99.90;;;;;;5009110;28;20034;-64
2022/11/26 12:41:06;;;;;;;5.50;2.63;;;9.00;99.90;;;;;;5000756;28;20034;-64
2022/11/26 12:43:43;;;;;;;6.65;2.85;;;9.00;99.90;;;;;;5008336;28;20113;-64
2022/11/26 12:46:37;;;;;;;8.60;3.13;;;8.90;99.90;;;;;;5000555;28;20064;-64
2022/11/26 12:49:21;;;;;;;9.05;3.50;;;8.90;99.90;;;;;;4997629;28;20049;-64
2022/11/26 12:52:04;;;;;;;8.07;3.15;;;8.90;99.90;;;;;;5000947;28;20037;-64
2022/11/26 12:54:47;;;;;;;5.60;2.92;;;8.90;99.90;;;;;;5001859;28;20033;-64
2022/11/26 12:57:27;;;;;;;5.00;2.80;;;8.80;99.90;;;;;;5004356;28;20026;-63
2022/11/26 12:59:57;;;;;;;9.13;3.15;;;8.90;99.90;;;;;;4998136;28;20715;-63